地図

経路データ

SID SEASON NUMBER BASIN SUBBASIN NAME ISO_TIME NATURE LAT LON WMO_WIND WMO_PRES WMO_AGENCY TRACK_TYPE DIST2LAND LANDFALL IFLAG USA_AGENCY USA_ATCF_ID USA_LAT USA_LON USA_RECORD USA_STATUS USA_WIND USA_PRES USA_SSHS USA_R34_NE USA_R34_SE USA_R34_SW USA_R34_NW USA_R50_NE USA_R50_SE USA_R50_SW USA_R50_NW USA_R64_NE USA_R64_SE USA_R64_SW USA_R64_NW USA_POCI USA_ROCI USA_RMW USA_EYE TOKYO_LAT TOKYO_LON TOKYO_GRADE TOKYO_WIND TOKYO_PRES TOKYO_R50_DIR TOKYO_R50_LONG TOKYO_R50_SHORT TOKYO_R30_DIR TOKYO_R30_LONG TOKYO_R30_SHORT TOKYO_LAND CMA_LAT CMA_LON CMA_CAT CMA_WIND CMA_PRES HKO_LAT HKO_LON HKO_CAT HKO_WIND HKO_PRES NEWDELHI_LAT NEWDELHI_LON NEWDELHI_GRADE NEWDELHI_WIND NEWDELHI_PRES NEWDELHI_CI NEWDELHI_DP NEWDELHI_POCI REUNION_LAT REUNION_LON REUNION_TYPE REUNION_WIND REUNION_PRES REUNION_TNUM REUNION_CI REUNION_RMW REUNION_R34_NE REUNION_R34_SE REUNION_R34_SW REUNION_R34_NW REUNION_R50_NE REUNION_R50_SE REUNION_R50_SW REUNION_R50_NW REUNION_R64_NE REUNION_R64_SE REUNION_R64_SW REUNION_R64_NW BOM_LAT BOM_LON BOM_TYPE BOM_WIND BOM_PRES BOM_TNUM BOM_CI BOM_RMW BOM_R34_NE BOM_R34_SE BOM_R34_SW BOM_R34_NW BOM_R50_NE BOM_R50_SE BOM_R50_SW BOM_R50_NW BOM_R64_NE BOM_R64_SE BOM_R64_SW BOM_R64_NW BOM_ROCI BOM_POCI BOM_EYE BOM_POS_METHOD BOM_PRES_METHOD NADI_LAT NADI_LON NADI_CAT NADI_WIND NADI_PRES WELLINGTON_LAT WELLINGTON_LON WELLINGTON_WIND WELLINGTON_PRES DS824_LAT DS824_LON DS824_STAGE DS824_WIND DS824_PRES TD9636_LAT TD9636_LON TD9636_STAGE TD9636_WIND TD9636_PRES TD9635_LAT TD9635_LON TD9635_WIND TD9635_PRES TD9635_ROCI NEUMANN_LAT NEUMANN_LON NEUMANN_CLASS NEUMANN_WIND NEUMANN_PRES MLC_LAT MLC_LON MLC_CLASS MLC_WIND MLC_PRES USA_GUST BOM_GUST BOM_GUST_PER REUNION_GUST REUNION_GUST_PER USA_SEAHGT USA_SEARAD_NE USA_SEARAD_SE USA_SEARAD_SW USA_SEARAD_NW STORM_SPEED STORM_DIR
1976287N20314 1976 126 NA NA NOT_NAMED 1976-10-12 12:00:00 TS 20.0000 -46.0000 20 hurdat_atl main 1802 1802 O_____________ hurdat_atl AL201976 20.0000 -46.0000 TD 20 -1 5 340
1976287N20314 1976 126 NA NA NOT_NAMED 1976-10-12 15:00:00 TS 20.2500 -46.0900 main 1829 1829 P_____________ AL201976 20.2500 -46.0900 TD 22 -1 5 340
1976287N20314 1976 126 NA NA NOT_NAMED 1976-10-12 18:00:00 TS 20.5000 -46.2000 25 hurdat_atl main 1845 1845 O_____________ hurdat_atl AL201976 20.5000 -46.2000 TD 25 -1 6 335
1976287N20314 1976 126 NA NA NOT_NAMED 1976-10-12 21:00:00 TS 20.7500 -46.3425 main 1871 1867 P_____________ AL201976 20.7500 -46.3425 TD 25 -1 6 331
1976287N20314 1976 126 NA NA NOT_NAMED 1976-10-13 00:00:00 TS 21.0000 -46.5000 25 hurdat_atl main 1883 1883 O_____________ hurdat_atl AL201976 21.0000 -46.5000 TD 25 -1 6 330
1976287N20314 1976 126 NA NA NOT_NAMED 1976-10-13 03:00:00 TS 21.2500 -46.6575 main 1904 1904 P_____________ AL201976 21.2500 -46.6575 TD 25 -1 6 331
1976287N20314 1976 126 NA NA NOT_NAMED 1976-10-13 06:00:00 TS 21.5000 -46.8000 25 hurdat_atl main 1919 1919 O_____________ hurdat_atl AL201976 21.5000 -46.8000 TD 25 -1 5 336
1976287N20314 1976 126 NA NA NOT_NAMED 1976-10-13 09:00:00 TS 21.7349 -46.8853 main 1935 1935 P_____________ AL201976 21.7349 -46.8853 TD 25 -1 5 340
1976287N20314 1976 126 NA NA NOT_NAMED 1976-10-13 12:00:00 TS 22.0000 -47.0000 25 hurdat_atl main 1954 1953 O_____________ hurdat_atl AL201976 22.0000 -47.0000 TD 25 -1 7 335
1976287N20314 1976 126 NA NA NOT_NAMED 1976-10-13 15:00:00 TS 22.4025 -47.2270 main 1966 1943 P_____________ AL201976 22.4025 -47.2270 TD 25 -1 8 327
1976287N20314 1976 126 NA NA NOT_NAMED 1976-10-13 18:00:00 TS 22.7000 -47.5000 25 hurdat_atl main 1943 1920 O_____________ hurdat_atl AL201976 22.7000 -47.5000 TD 25 -1 5 296
1976287N20314 1976 126 NA NA NOT_NAMED 1976-10-13 21:00:00 TS 22.6375 -47.7505 main 1910 1888 P_____________ AL201976 22.6375 -47.7505 TD 25 -1 5 247
1976287N20314 1976 126 NA NA NOT_NAMED 1976-10-14 00:00:00 TS 22.5000 -48.0000 25 hurdat_atl main 1888 1868 O_____________ hurdat_atl AL201976 22.5000 -48.0000 TD 25 -1 5 261
1976287N20314 1976 126 NA NA NOT_NAMED 1976-10-14 03:00:00 TS 22.5625 -48.2499 main 1870 1842 P_____________ AL201976 22.5625 -48.2499 TD 27 -1 5 293
1976287N20314 1976 126 NA NA NOT_NAMED 1976-10-14 06:00:00 TS 22.7000 -48.5000 30 hurdat_atl main 1842 1814 O_____________ hurdat_atl AL201976 22.7000 -48.5000 TD 30 -1 6 295
1976287N20314 1976 126 NA NA NOT_NAMED 1976-10-14 09:00:00 TS 22.8126 -48.8247 main 1814 1797 P_____________ AL201976 22.8126 -48.8247 TD 30 -1 6 303
1976287N20314 1976 126 NA NA NOT_NAMED 1976-10-14 12:00:00 TS 23.0000 -49.0000 30 hurdat_atl main 1800 1800 O_____________ hurdat_atl AL201976 23.0000 -49.0000 TD 30 -1 5 358
1976287N20314 1976 126 NA NA NOT_NAMED 1976-10-14 15:00:00 TS 23.3126 -48.8253 main 1827 1827 P_____________ AL201976 23.3126 -48.8253 TD 30 -1 8 33
1976287N20314 1976 126 NA NA NOT_NAMED 1976-10-14 18:00:00 TS 23.7000 -48.5000 30 hurdat_atl main 1868 1868 O_____________ hurdat_atl AL201976 23.7000 -48.5000 TD 30 -1 10 34
1976287N20314 1976 126 NA NA NOT_NAMED 1976-10-14 21:00:00 TS 24.1000 -48.2499 main 1910 1910 P_____________ AL201976 24.1000 -48.2499 TD 27 -1 9 30
1976287N20314 1976 126 NA NA NOT_NAMED 1976-10-15 00:00:00 TS 24.5000 -48.0000 25 hurdat_atl main 1942 1942 O_____________ hurdat_atl AL201976 24.5000 -48.0000 TD 25 -1 9 31
1976287N20314 1976 126 NA NA NOT_NAMED 1976-10-15 03:00:00 TS 24.8500 -47.7498 main 1981 1981 P_____________ AL201976 24.8500 -47.7498 TD 25 -1 8 33
1976287N20314 1976 126 NA NA NOT_NAMED 1976-10-15 06:00:00 TS 25.2000 -47.5000 25 hurdat_atl main 2014 2014 O_____________ hurdat_atl AL201976 25.2000 -47.5000 TD 25 -1 9 31
1976287N20314 1976 126 NA NA NOT_NAMED 1976-10-15 09:00:00 TS 25.5876 -47.2504 main 2047 2047 P_____________ AL201976 25.5876 -47.2504 TD 22 -1 9 29
1976287N20314 1976 126 NA NA NOT_NAMED 1976-10-15 12:00:00 TS 26.0000 -47.0000 20 hurdat_atl main 2091 O_____________ hurdat_atl AL201976 26.0000 -47.0000 TD 20 -1 9 29

IBTrACS Databaseについて

本データベースは、米国NOAAが公開する1842年以降の世界の熱帯低気圧のベストトラックデータアーカイブInternational Best Track Archive for Climate Stewardship (IBTrACS)を、ウェブで閲覧しやすい形式に変換したものです。

最終更新日:2021-10-21